CES5244 ZGSZ-ZSQD
Flight info
| Callsign | CES5244 |
|---|---|
| Flight time | N/A |
| Altitude | 33100 |
| Route | IDUMA W41 ISLOM G471 XEBUL DCT ODOPI DCT AKAVO DCT DST W117 BEGMO W13 TOGUG/K0859S1040 W13 HSN/K0861S1010 W13 PINOT/K0857S1040 B221 IDVEL |
| Aircraft | A321/M-SDE3FGHIRWY/LB1 |
Departure
| Time | N/A |
|---|---|
| Airport | Shenzhen Bao'an International Airport (ZGSZ) |
Arrival
| Time | 2026-04-21 13:29 |
|---|---|
| Airport | Qingdao Jiaodong International Airport (ZSQD) |
| Time | Latitude | Longitude | Altitude | Speed | Heading |
|---|---|---|---|---|---|
| 2026-04-21 13:26 | 36.46373 | 120.03522 | 2000 ft | 155 kts | 165° |
| 2026-04-21 13:26 | 36.45354 | 120.03923 | 1810 ft | 149 kts | 165° |
| 2026-04-21 13:26 | 36.44393 | 120.04303 | 1601 ft | 143 kts | 164° |
| 2026-04-21 13:26 | 36.43451 | 120.04673 | 1375 ft | 141 kts | 164° |
| 2026-04-21 13:27 | 36.42515 | 120.05042 | 1199 ft | 141 kts | 164° |
| 2026-04-21 13:27 | 36.41579 | 120.05408 | 1007 ft | 142 kts | 163° |
| 2026-04-21 13:27 | 36.40638 | 120.05778 | 818 ft | 142 kts | 163° |
| 2026-04-21 13:27 | 36.39695 | 120.06150 | 609 ft | 143 kts | 162° |
| 2026-04-21 13:28 | 36.38742 | 120.06527 | 417 ft | 143 kts | 163° |
| 2026-04-21 13:28 | 36.37789 | 120.06902 | 247 ft | 143 kts | 163° |
| 2026-04-21 13:28 | 36.36836 | 120.07273 | 52 ft | 143 kts | 163° |
| 2026-04-21 13:28 | 36.35991 | 120.07603 | 35 ft | 105 kts | 162° |
| 2026-04-21 13:29 | 36.35457 | 120.07813 | 36 ft | 50 kts | 162° |
| 2026-04-21 13:29 | 36.35255 | 120.07935 | 35 ft | 31 kts | 139° |
| 2026-04-21 13:29 | 36.35203 | 120.07997 | 32 ft | 2 kts | 136° |
| 2026-04-21 13:29 | 36.35173 | 120.08032 | 33 ft | 9 kts | 137° |
| 2026-04-21 13:30 | 36.35146 | 120.08110 | 33 ft | 11 kts | 69° |
| 2026-04-21 13:30 | 36.35212 | 120.08128 | 34 ft | 10 kts | 345° |
| 2026-04-21 13:30 | 36.35281 | 120.08101 | 34 ft | 10 kts | 342° |
| 2026-04-21 13:30 | 36.35343 | 120.08077 | 38 ft | 8 kts | 342° |
| 2026-04-21 13:31 | 36.35401 | 120.08054 | 40 ft | 9 kts | 342° |
| 2026-04-21 13:31 | 36.35471 | 120.08026 | 41 ft | 12 kts | 342° |
| 2026-04-21 13:31 | 36.35571 | 120.07987 | 40 ft | 18 kts | 343° |
| 2026-04-21 13:31 | 36.35700 | 120.07937 | 39 ft | 20 kts | 342° |
| 2026-04-21 13:32 | 36.35839 | 120.07883 | 39 ft | 22 kts | 343° |
| 2026-04-21 13:32 | 36.35986 | 120.07824 | 39 ft | 22 kts | 342° |
| 2026-04-21 13:32 | 36.36100 | 120.07785 | 37 ft | 14 kts | 4° |
| 2026-04-21 13:32 | 36.36152 | 120.07892 | 35 ft | 16 kts | 72° |
| 2026-04-21 13:33 | 36.36173 | 120.08017 | 35 ft | 15 kts | 89° |
| 2026-04-21 13:33 | 36.36161 | 120.08127 | 36 ft | 8 kts | 101° |
| 2026-04-21 13:33 | 36.36185 | 120.08158 | 34 ft | 6 kts | 15° |
| 2026-04-21 13:33 | 36.36207 | 120.08164 | 34 ft | 0 kts | 11° |
| 2026-04-21 13:34 | 36.36201 | 120.08162 | 34 ft | 1 kts | 11° |
| 2026-04-21 13:34 | 36.36199 | 120.08162 | 34 ft | 0 kts | 11° |